コモドロリバダビア の空港の天気 - METARとTAF

Comodoro Rivadavia Aerodrome ( SAVC / CRD ) - アルゼンチン チュブ州コモドロリバダビア
飛行場実況気象(Metar)
観測時間04/26 08:00 ART (04/26 11:00 UTC)
風向・風速西 2m/s
視程10km以上
天気現象
なし
気温16℃
湿度59%
気圧999hPa
METARSAVC 261100Z 27003KT 240V320 CAVOK 16/08 Q0999
過去の天気等 Google飛行場航空写真 Wunderground天気予報

過去48時間のMETAR

飛行場予報(TAF)
発表時間: 4/26 02:00 ART (4/26 05:00 UTC)
予報対象時間: 26日3時 ART ~ 27日3時 ART
風向・風速北西 9m/s
視程10km以上
少しの雲 雲底高度 910m
全天の8割程度の雲 雲底高度 3,050m
26日6時 ART ~ 26日8時 ART に徐々に
風向・風速北西 5m/s
26日17時 ART ~ 26日19時 ART に徐々に
風向・風速西北西 9m/s
視程10km以上
全天の4割程度の雲 雲底高度 910m
TAF SAVC 260500Z 2606/2706 32018KT 9999 FEW030 BKN100 TX18/2619Z TN12/2610Z
BECMG 2609/2611 32010KT
BECMG 2620/2622 29018KT 9999 SCT030